Burbank, Illinois
Current Conditions -  °F | °C
As of 10:53 AM on Friday 31 Oct 2014 (Local Time) from KMDW Reporting Station
Light Snow Light Snow  
Wind Chill: 30°   Ceiling: 3700
Heat Index: 40°   Visibility: 8mi
Dew Point: 26°   Wind: 23mph
Humidity: 58%   Direction: 340°NNW
Pressure: 30.13"   Gusts: 48mph
Location:  41.75°N, 87.78°W
Report Text: KMDW 311553Z 34020G42KT 8SM -SN FEW030 BKN037 BKN047 04/M03 A3013 RMK AO2 PK WND 34042/1550 SNB05 SLP207 P0000 T00441033
Loading
Personal Weather Stations






























Interactive Weather Map
Tropical Storm Tracking
New forecast layout! Learn more

10-Day Weather Forecast

Advertisements
Track Severe Weather on mobile